Time;durP1;ratioP1;P1;durP2;ratioP2;P2;SDS_P1;SDS_P2;PMS_P1;PMS_P2;Temp;Humidity;BMP_temperature;BMP_pressure;BME280_temperature;BME280_humidity;BME280_pressure;Samples;Min_cycle;Max_cycle;Signal;HPM_P1;HPM_P2
2023/08/03 00:01:05;;;;;;;3.80;1.30;;;16.40;99.90;;;;;;5081100;28;20204;-70
2023/08/03 00:03:32;;;;;;;1.90;0.90;;;16.40;99.90;;;;;;5091192;28;20283;-70
2023/08/03 00:05:58;;;;;;;3.08;0.88;;;16.40;99.90;;;;;;5083032;28;21062;-70
2023/08/03 00:08:25;;;;;;;2.78;1.20;;;16.40;99.90;;;;;;5080113;28;20319;-69
2023/08/03 00:10:52;;;;;;;6.68;1.20;;;16.40;99.90;;;;;;5095368;28;20199;-70
2023/08/03 00:13:19;;;;;;;4.10;1.10;;;16.40;99.90;;;;;;5086893;28;20195;-70
2023/08/03 00:15:46;;;;;;;3.85;1.13;;;16.30;99.90;;;;;;5097659;28;20211;-70
2023/08/03 00:18:14;;;;;;;1.02;0.85;;;16.60;99.90;;;;;;5092320;28;20196;-70
2023/08/03 00:20:41;;;;;;;3.03;1.10;;;16.40;99.90;;;;;;5090686;28;20204;-70
2023/08/03 00:23:07;;;;;;;4.20;1.10;;;16.30;99.90;;;;;;5073821;28;20212;-70
2023/08/03 00:25:34;;;;;;;6.72;1.23;;;16.30;99.90;;;;;;5090979;28;20242;-70
2023/08/03 00:28:01;;;;;;;2.00;0.90;;;16.30;99.90;;;;;;5094072;27;20660;-70
2023/08/03 00:30:28;;;;;;;2.15;1.10;;;16.20;99.90;;;;;;5090590;28;20213;-70
2023/08/03 00:32:55;;;;;;;8.30;1.98;;;16.20;99.90;;;;;;5096384;28;20206;-70
2023/08/03 00:35:23;;;;;;;4.25;1.10;;;16.20;99.90;;;;;;5092941;28;20765;-70
2023/08/03 00:37:51;;;;;;;4.47;1.42;;;16.20;99.90;;;;;;5082061;28;20220;-70
2023/08/03 00:40:18;;;;;;;11.23;1.17;;;16.20;99.90;;;;;;5074696;28;20226;-69
2023/08/03 00:42:45;;;;;;;0.80;0.80;;;16.20;99.90;;;;;;5090871;28;20216;-70
2023/08/03 00:45:12;;;;;;;2.50;1.10;;;16.10;99.90;;;;;;5088545;28;20246;-70
2023/08/03 00:47:39;;;;;;;4.20;1.10;;;16.10;99.90;;;;;;5089452;28;20686;-70
2023/08/03 00:50:07;;;;;;;2.03;1.23;;;16.10;99.90;;;;;;5090496;28;20228;-70
2023/08/03 00:52:35;;;;;;;2.35;1.13;;;16.10;99.90;;;;;;5088097;28;20368;-69
2023/08/03 00:55:02;;;;;;;5.88;1.70;;;16.00;99.90;;;;;;5073916;28;20219;-70
2023/08/03 00:57:29;;;;;;;3.38;1.38;;;16.20;99.90;;;;;;5090165;27;21508;-71
2023/08/03 00:59:57;;;;;;;5.38;1.30;;;16.10;99.90;;;;;;5073123;28;20238;-70
2023/08/03 01:02:24;;;;;;;2.45;1.30;;;16.20;99.90;;;;;;5091616;28;20206;-69
2023/08/03 01:04:51;;;;;;;3.03;1.17;;;16.10;99.90;;;;;;5098010;28;20198;-70
2023/08/03 01:07:17;;;;;;;3.50;1.50;;;16.40;99.90;;;;;;5095793;28;20225;-69
2023/08/03 01:09:46;;;;;;;3.47;1.13;;;16.10;99.90;;;;;;5074045;28;20223;-70
2023/08/03 01:12:12;;;;;;;9.77;2.03;;;16.20;99.90;;;;;;5082891;28;20223;-70
2023/08/03 01:14:39;;;;;;;7.00;1.23;;;16.30;99.90;;;;;;5094761;28;20220;-70
2023/08/03 01:17:06;;;;;;;1.55;1.08;;;16.20;99.90;;;;;;5072406;28;20237;-70
2023/08/03 01:19:33;;;;;;;5.03;1.45;;;16.30;99.90;;;;;;5092712;28;20221;-69
2023/08/03 01:22:03;;;;;;;2.67;1.35;;;16.30;99.90;;;;;;5088433;28;20696;-71
2023/08/03 01:24:31;;;;;;;4.75;1.25;;;16.30;99.90;;;;;;5088144;28;20220;-70
2023/08/03 01:27:00;;;;;;;7.03;1.40;;;16.30;99.90;;;;;;5066265;28;20731;-70
2023/08/03 01:29:27;;;;;;;4.63;1.35;;;16.30;99.90;;;;;;5090083;28;20242;-70
2023/08/03 01:31:56;;;;;;;3.78;1.30;;;16.30;99.90;;;;;;5084138;28;20314;-70
2023/08/03 01:34:24;;;;;;;5.90;1.40;;;16.30;99.90;;;;;;5091464;28;20231;-70
2023/08/03 01:36:50;;;;;;;7.22;1.25;;;16.30;99.90;;;;;;5093578;28;20198;-70
2023/08/03 01:39:17;;;;;;;1.80;1.30;;;16.20;99.90;;;;;;5091476;28;20195;-69
2023/08/03 01:41:46;;;;;;;1.52;1.00;;;16.20;99.90;;;;;;5075323;28;20204;-70
2023/08/03 01:44:26;;;;;;;4.28;1.60;;;16.20;99.90;;;;;;5094560;28;21002;-70
2023/08/03 01:46:54;;;;;;;6.18;2.15;;;16.20;99.90;;;;;;5088808;28;20223;-71
2023/08/03 01:49:22;;;;;;;1.38;1.15;;;16.20;99.90;;;;;;5093058;28;20295;-70
2023/08/03 01:51:49;;;;;;;6.38;1.90;;;16.20;99.90;;;;;;5094612;28;20565;-70
2023/08/03 01:54:17;;;;;;;2.70;1.33;;;16.30;99.90;;;;;;5092094;28;20231;-70
2023/08/03 01:56:44;;;;;;;6.22;1.20;;;16.30;99.90;;;;;;5073487;28;20204;-70
2023/08/03 01:59:12;;;;;;;4.28;1.35;;;16.30;99.90;;;;;;5086968;28;20200;-70
2023/08/03 02:01:40;;;;;;;3.92;1.15;;;16.30;99.90;;;;;;5096795;28;20199;-70
2023/08/03 02:04:07;;;;;;;3.25;1.20;;;16.20;99.90;;;;;;5081128;28;20219;-71
2023/08/03 02:06:33;;;;;;;2.80;1.40;;;16.30;99.90;;;;;;5092555;28;20227;-70
2023/08/03 02:09:00;;;;;;;1.70;0.90;;;16.40;99.90;;;;;;5086891;28;20229;-71
2023/08/03 02:11:27;;;;;;;4.00;1.20;;;16.40;99.90;;;;;;5064598;28;25165;-70
2023/08/03 02:13:54;;;;;;;5.05;1.35;;;16.40;99.90;;;;;;5085853;28;20212;-70
2023/08/03 02:16:22;;;;;;;4.00;1.13;;;16.40;99.90;;;;;;5087831;28;20220;-69
2023/08/03 02:18:49;;;;;;;5.00;1.38;;;16.40;99.90;;;;;;5083805;28;20223;-70
2023/08/03 02:21:15;;;;;;;4.03;1.23;;;16.40;99.90;;;;;;5075599;28;20726;-70
2023/08/03 02:23:42;;;;;;;2.50;1.20;;;16.40;99.90;;;;;;5089639;28;20215;-70
2023/08/03 02:26:09;;;;;;;2.88;1.30;;;;;;;;;;5087416;28;20231;-70
2023/08/03 02:28:36;;;;;;;6.70;1.70;;;16.40;99.90;;;;;;5071687;28;20231;-70
2023/08/03 02:31:03;;;;;;;4.45;1.88;;;16.20;99.90;;;;;;5088267;28;20227;-70
2023/08/03 02:33:31;;;;;;;8.43;1.52;;;16.20;99.90;;;;;;5083920;28;20223;-70
2023/08/03 02:35:58;;;;;;;2.38;1.38;;;16.30;99.90;;;;;;5078613;28;20354;-70
2023/08/03 02:38:25;;;;;;;3.47;1.30;;;16.40;99.90;;;;;;5087987;28;20220;-70
2023/08/03 02:40:52;;;;;;;3.95;1.45;;;16.30;99.90;;;;;;5090283;28;20853;-70
2023/08/03 02:43:19;;;;;;;3.20;1.30;;;18.60;99.90;;;;;;5067415;28;20649;-70
2023/08/03 02:45:46;;;;;;;3.08;1.65;;;16.30;99.90;;;;;;5090374;28;20696;-70
2023/08/03 02:48:13;;;;;;;6.75;2.00;;;16.30;99.90;;;;;;5084531;28;20215;-70
2023/08/03 02:50:41;;;;;;;2.40;1.40;;;16.30;99.90;;;;;;5092843;28;20226;-70
2023/08/03 02:53:08;;;;;;;4.78;1.90;;;;;;;;;;5085539;28;20891;-70
2023/08/03 02:55:35;;;;;;;3.28;1.15;;;16.30;99.90;;;;;;5096075;28;20200;-70
2023/08/03 02:58:01;;;;;;;1.85;1.20;;;16.30;99.90;;;;;;5091045;28;20206;-70
2023/08/03 03:00:28;;;;;;;3.90;1.25;;;16.40;99.90;;;;;;5073423;28;20205;-70
2023/08/03 03:02:55;;;;;;;4.88;1.30;;;16.30;99.90;;;;;;5093107;28;20200;-70
2023/08/03 03:05:22;;;;;;;2.10;1.13;;;16.30;99.90;;;;;;5092205;28;21037;-70
2023/08/03 03:07:50;;;;;;;5.35;1.33;;;16.30;99.90;;;;;;5079256;28;20238;-70
2023/08/03 03:10:17;;;;;;;3.55;1.40;;;16.30;99.90;;;;;;5086215;27;20770;-70
2023/08/03 03:12:44;;;;;;;3.05;1.40;;;16.30;99.90;;;;;;5082916;28;20237;-70
2023/08/03 03:15:11;;;;;;;4.97;1.25;;;16.30;99.90;;;;;;5068202;28;20229;-70
2023/08/03 03:17:38;;;;;;;1.10;1.00;;;16.30;99.90;;;;;;5089315;28;21007;-70
2023/08/03 03:20:06;;;;;;;5.80;1.52;;;16.30;99.90;;;;;;5086847;28;20217;-70
2023/08/03 03:22:35;;;;;;;2.55;1.08;;;16.40;99.90;;;;;;5090929;28;20225;-70
2023/08/03 03:25:03;;;;;;;5.53;1.27;;;16.30;99.90;;;;;;5089511;28;21001;-70
2023/08/03 03:27:30;;;;;;;5.78;1.42;;;16.40;99.90;;;;;;5081611;28;20227;-70
2023/08/03 03:29:56;;;;;;;6.45;1.30;;;16.20;99.90;;;;;;5082650;28;20223;-70
2023/08/03 03:32:24;;;;;;;4.03;1.58;;;;;;;;;;5078620;28;20220;-70
2023/08/03 03:34:50;;;;;;;3.13;1.35;;;16.30;99.90;;;;;;5086173;28;20217;-70
2023/08/03 03:37:17;;;;;;;1.98;1.00;;;16.40;99.90;;;;;;5092531;28;20207;-70
2023/08/03 03:39:44;;;;;;;2.50;1.13;;;16.40;99.90;;;;;;5087993;28;20216;-70
2023/08/03 03:42:12;;;;;;;4.85;1.52;;;16.30;99.90;;;;;;5092138;28;20716;-70
2023/08/03 03:44:39;;;;;;;3.53;1.35;;;16.40;99.90;;;;;;5083708;28;20231;-73
2023/08/03 03:47:06;;;;;;;2.15;1.55;;;16.40;99.90;;;;;;5073823;28;20223;-70
2023/08/03 03:49:33;;;;;;;3.90;1.25;;;16.30;99.90;;;;;;5088276;28;20703;-70
2023/08/03 03:52:00;;;;;;;2.58;1.02;;;16.40;99.90;;;;;;5089958;28;20215;-70
2023/08/03 03:54:27;;;;;;;3.55;1.13;;;16.40;99.90;;;;;;5092409;28;20225;-71
2023/08/03 03:56:55;;;;;;;1.58;1.08;;;16.40;99.90;;;;;;5091679;28;20226;-70
2023/08/03 03:59:23;;;;;;;3.28;1.30;;;16.40;99.90;;;;;;5084131;28;20711;-70
2023/08/03 04:01:50;;;;;;;3.20;1.25;;;16.40;99.90;;;;;;5077662;27;20234;-70
2023/08/03 04:04:16;;;;;;;1.08;1.00;;;16.40;99.90;;;;;;5090313;28;20196;-70
2023/08/03 04:06:44;;;;;;;1.95;0.93;;;16.40;99.90;;;;;;5095022;28;20225;-70
2023/08/03 04:09:11;;;;;;;0.90;0.90;;;16.40;99.90;;;;;;5095396;28;20221;-71
2023/08/03 04:11:37;;;;;;;0.75;0.75;;;16.30;99.90;;;;;;5096824;28;20775;-71
2023/08/03 04:14:04;;;;;;;1.02;0.90;;;16.40;99.90;;;;;;5092278;28;20234;-70
2023/08/03 04:16:32;;;;;;;2.38;1.48;;;16.40;99.90;;;;;;5075643;28;20216;-70
2023/08/03 04:18:59;;;;;;;6.72;1.50;;;;;;;;;;5094445;28;20199;-71
2023/08/03 04:21:26;;;;;;;4.75;1.52;;;16.50;99.90;;;;;;5091547;28;20204;-70
2023/08/03 04:23:53;;;;;;;1.30;1.10;;;16.40;99.90;;;;;;5094012;28;20195;-72
2023/08/03 04:26:20;;;;;;;1.60;1.20;;;16.40;99.90;;;;;;5095799;28;20201;-70
2023/08/03 04:28:46;;;;;;;3.42;1.30;;;16.40;99.90;;;;;;5095361;28;20224;-70
2023/08/03 04:31:13;;;;;;;3.78;1.73;;;16.80;99.90;;;;;;5076683;28;20313;-70
2023/08/03 04:33:41;;;;;;;2.83;1.60;;;16.50;99.90;;;;;;5083782;28;20223;-71
2023/08/03 04:36:08;;;;;;;2.33;1.90;;;16.50;99.90;;;;;;5095572;28;20267;-70
2023/08/03 04:38:35;;;;;;;2.15;1.85;;;16.50;99.90;;;;;;5090197;28;20206;-70
2023/08/03 04:41:02;;;;;;;2.55;1.50;;;16.60;99.90;;;;;;5088707;28;20234;-70
2023/08/03 04:43:29;;;;;;;4.15;1.50;;;16.50;99.90;;;;;;5088166;28;20226;-70
2023/08/03 04:45:55;;;;;;;1.70;1.55;;;16.50;99.90;;;;;;5091895;28;20224;-70
2023/08/03 04:48:25;;;;;;;2.47;1.67;;;16.30;99.90;;;;;;5058477;28;20238;-70
2023/08/03 04:50:53;;;;;;;1.70;1.60;;;16.50;99.90;;;;;;5093200;28;20231;-70
2023/08/03 04:53:20;;;;;;;2.08;1.65;;;16.60;99.90;;;;;;5078528;28;20234;-70
2023/08/03 04:55:47;;;;;;;1.65;1.50;;;16.60;99.90;;;;;;5088025;28;20248;-70
2023/08/03 04:58:14;;;;;;;3.83;1.50;;;16.30;99.90;;;;;;5088761;28;20211;-70
2023/08/03 05:00:40;;;;;;;1.73;1.52;;;16.60;99.90;;;;;;5091541;27;20338;-70
2023/08/03 05:03:07;;;;;;;1.70;1.45;;;16.60;99.90;;;;;;5072305;28;20228;-70
2023/08/03 05:05:34;;;;;;;4.30;1.50;;;16.70;99.90;;;;;;5083243;28;21131;-70
2023/08/03 05:08:02;;;;;;;2.67;1.55;;;16.60;99.90;;;;;;5084118;28;20308;-70
2023/08/03 05:10:29;;;;;;;3.78;1.60;;;16.70;99.90;;;;;;5084266;28;21414;-70
2023/08/03 05:12:56;;;;;;;4.40;1.70;;;16.10;99.90;;;;;;5087440;28;20226;-71
2023/08/03 05:15:22;;;;;;;2.00;1.55;;;16.70;99.90;;;;;;5088908;27;20704;-70
2023/08/03 05:17:49;;;;;;;2.65;1.60;;;16.80;99.90;;;;;;5089187;28;20215;-70
2023/08/03 05:20:16;;;;;;;2.55;1.60;;;16.70;99.90;;;;;;5066557;28;20653;-70
2023/08/03 05:22:43;;;;;;;1.60;1.50;;;16.70;99.90;;;;;;5077079;28;20235;-70
2023/08/03 05:25:11;;;;;;;2.88;1.40;;;16.60;99.90;;;;;;5079489;28;20227;-70
2023/08/03 05:27:39;;;;;;;4.63;1.60;;;16.80;99.90;;;;;;5086078;28;20231;-70
2023/08/03 05:30:07;;;;;;;3.65;1.65;;;16.80;99.90;;;;;;5089691;28;20231;-70
2023/08/03 05:32:34;;;;;;;2.13;1.60;;;16.90;99.90;;;;;;5091406;28;20243;-70
2023/08/03 05:35:01;;;;;;;2.83;1.70;;;16.80;99.90;;;;;;5073312;28;20215;-71
2023/08/03 05:37:28;;;;;;;2.70;1.35;;;16.90;99.90;;;;;;5094178;27;20200;-70
2023/08/03 05:39:55;;;;;;;3.05;1.50;;;16.10;99.90;;;;;;5084036;28;20212;-70
2023/08/03 05:42:23;;;;;;;1.50;1.40;;;17.00;99.90;;;;;;5087109;28;20195;-70
2023/08/03 05:44:50;;;;;;;1.60;1.50;;;17.00;99.90;;;;;;5091978;28;20199;-70
2023/08/03 05:47:18;;;;;;;2.70;1.50;;;16.90;99.90;;;;;;5089071;28;20968;-70
2023/08/03 05:49:45;;;;;;;4.68;1.83;;;17.00;99.90;;;;;;5096251;28;20195;-70
2023/08/03 05:52:13;;;;;;;2.38;1.58;;;17.00;99.90;;;;;;5072948;28;20204;-70
2023/08/03 05:54:40;;;;;;;4.25;1.70;;;17.00;99.90;;;;;;5084788;28;20206;-70
2023/08/03 05:57:10;;;;;;;1.70;1.60;;;17.00;99.90;;;;;;5081273;28;20199;-72
2023/08/03 05:59:40;;;;;;;1.58;1.48;;;17.00;99.90;;;;;;5089405;28;20207;-70
2023/08/03 06:02:20;;;;;;;3.10;1.75;;;17.30;99.90;;;;;;5092220;28;20200;-71
2023/08/03 06:04:47;;;;;;;1.83;1.50;;;17.00;99.90;;;;;;5093318;28;20247;-70
2023/08/03 06:07:15;;;;;;;2.97;1.60;;;16.90;99.90;;;;;;5071235;27;20224;-71
2023/08/03 06:09:41;;;;;;;2.38;1.70;;;17.00;99.90;;;;;;5089592;28;20222;-70
2023/08/03 06:12:15;;;;;;;1.80;1.48;;;16.90;99.90;;;;;;5092711;28;20656;-70
2023/08/03 06:14:43;;;;;;;2.92;1.73;;;16.90;99.90;;;;;;5092076;28;20639;-70
2023/08/03 06:17:10;;;;;;;2.30;1.65;;;16.90;99.90;;;;;;5093164;28;20203;-71
2023/08/03 06:19:37;;;;;;;4.97;1.98;;;;;;;;;;5093238;28;20210;-70
2023/08/03 06:22:12;;;;;;;2.75;1.63;;;17.00;99.90;;;;;;5072658;28;20224;-73
2023/08/03 06:24:38;;;;;;;1.77;1.67;;;16.90;99.90;;;;;;5094002;28;20201;-70
2023/08/03 06:27:06;;;;;;;5.85;1.55;;;16.90;99.90;;;;;;5082804;28;20234;-71
2023/08/03 06:29:33;;;;;;;3.28;1.70;;;17.00;99.90;;;;;;5093208;28;20231;-70
2023/08/03 06:32:01;;;;;;;2.17;1.50;;;17.00;99.90;;;;;;5093617;27;20222;-71
2023/08/03 06:34:28;;;;;;;1.92;1.60;;;17.00;99.90;;;;;;5091573;28;20299;-70
2023/08/03 06:36:55;;;;;;;2.35;1.88;;;16.90;99.90;;;;;;5077010;28;20219;-70
2023/08/03 06:39:22;;;;;;;2.33;1.63;;;16.90;99.90;;;;;;5082984;28;20277;-71
2023/08/03 06:41:49;;;;;;;2.15;1.95;;;16.90;99.90;;;;;;5086269;28;20195;-70
2023/08/03 06:44:15;;;;;;;2.60;2.08;;;16.90;99.90;;;;;;5091178;28;20191;-70
2023/08/03 06:46:42;;;;;;;2.33;1.80;;;17.00;99.90;;;;;;5093464;28;20204;-70
2023/08/03 06:49:10;;;;;;;1.90;1.80;;;17.00;99.90;;;;;;5089441;28;20258;-71
2023/08/03 06:51:38;;;;;;;1.75;1.65;;;16.90;99.90;;;;;;5091718;28;20769;-70
2023/08/03 06:54:05;;;;;;;1.90;1.70;;;17.00;99.90;;;;;;5070153;28;20679;-70
2023/08/03 06:56:32;;;;;;;6.13;2.10;;;16.90;99.90;;;;;;5085158;28;20207;-70
2023/08/03 06:58:59;;;;;;;3.10;2.10;;;16.90;99.90;;;;;;5092478;28;20207;-72
2023/08/03 07:01:26;;;;;;;4.82;1.90;;;16.90;99.90;;;;;;5090070;28;20219;-70
2023/08/03 07:03:53;;;;;;;1.88;1.65;;;17.00;99.90;;;;;;5096146;28;20195;-70
2023/08/03 07:06:21;;;;;;;1.40;1.30;;;17.00;99.90;;;;;;5090645;28;20565;-70
2023/08/03 07:08:47;;;;;;;1.55;1.20;;;17.00;99.90;;;;;;5094131;28;20227;-70
2023/08/03 07:11:14;;;;;;;6.45;1.63;;;16.70;99.90;;;;;;5072325;28;20203;-70
2023/08/03 07:13:41;;;;;;;1.20;0.82;;;16.80;99.90;;;;;;5087620;28;20200;-70
2023/08/03 07:16:08;;;;;;;2.83;1.30;;;16.80;99.90;;;;;;5080840;28;20894;-71
2023/08/03 07:18:35;;;;;;;2.50;1.40;;;16.80;99.90;;;;;;5094667;28;20191;-70
2023/08/03 07:21:04;;;;;;;1.55;1.33;;;16.80;99.90;;;;;;5086201;28;20200;-70
2023/08/03 07:23:32;;;;;;;5.25;1.40;;;16.90;99.90;;;;;;5093312;28;20210;-70
2023/08/03 07:25:59;;;;;;;1.75;1.60;;;17.30;99.90;;;;;;5070400;28;20209;-70
2023/08/03 07:28:26;;;;;;;2.15;1.75;;;17.00;99.90;;;;;;5087796;28;20711;-70
2023/08/03 07:30:53;;;;;;;3.15;1.90;;;17.00;99.90;;;;;;5081421;28;20196;-70
2023/08/03 07:33:20;;;;;;;2.45;1.90;;;17.10;99.90;;;;;;5089962;28;20201;-70
2023/08/03 07:35:47;;;;;;;2.55;2.22;;;;;;;;;;5093715;28;20772;-69
2023/08/03 07:38:14;;;;;;;2.47;2.10;;;17.10;99.90;;;;;;5088626;28;20196;-70
2023/08/03 07:40:42;;;;;;;6.60;2.50;;;17.20;99.90;;;;;;5074107;28;20676;-71
2023/08/03 07:43:08;;;;;;;3.22;2.25;;;17.20;99.90;;;;;;5084403;28;20211;-70
2023/08/03 07:45:39;;;;;;;3.75;2.50;;;17.30;99.90;;;;;;5091143;28;20198;-71
2023/08/03 07:48:06;;;;;;;7.88;2.45;;;17.40;99.90;;;;;;5082118;28;20223;-71
2023/08/03 07:50:33;;;;;;;3.83;2.45;;;17.70;99.90;;;;;;5088639;28;20192;-71
2023/08/03 07:52:59;;;;;;;3.30;2.42;;;17.90;99.90;;;;;;5088388;28;20206;-72
2023/08/03 07:55:26;;;;;;;6.63;2.13;;;17.60;99.90;;;;;;5072949;28;20203;-71
2023/08/03 07:57:54;;;;;;;5.78;2.72;;;17.80;99.90;;;;;;5092090;28;20673;-71
2023/08/03 08:00:21;;;;;;;5.60;1.73;;;17.80;99.90;;;;;;5086348;28;20214;-71
2023/08/03 08:02:48;;;;;;;4.90;1.80;;;17.70;99.90;;;;;;5087819;28;20199;-71
2023/08/03 08:05:15;;;;;;;4.35;1.88;;;17.50;99.90;;;;;;5090037;28;20202;-71
2023/08/03 08:07:42;;;;;;;5.85;2.15;;;17.50;99.90;;;;;;5094304;28;20229;-71
2023/08/03 08:10:11;;;;;;;5.38;2.17;;;18.70;99.90;;;;;;5061681;28;20744;-71
2023/08/03 08:12:37;;;;;;;2.13;1.65;;;17.50;99.90;;;;;;5092219;28;20273;-71
2023/08/03 08:15:07;;;;;;;2.90;2.00;;;17.60;99.90;;;;;;5076693;28;20203;-71
2023/08/03 08:17:33;;;;;;;4.43;2.00;;;17.50;99.90;;;;;;5088041;28;20227;-71
2023/08/03 08:20:00;;;;;;;2.67;1.85;;;17.50;99.90;;;;;;5087203;28;20238;-71
2023/08/03 08:22:27;;;;;;;3.28;2.08;;;17.60;99.90;;;;;;5088520;28;20730;-71
2023/08/03 08:24:54;;;;;;;4.57;1.92;;;17.70;99.90;;;;;;5085464;28;20265;-71
2023/08/03 08:27:21;;;;;;;4.22;1.90;;;17.60;99.90;;;;;;5076124;28;20222;-71
2023/08/03 08:29:48;;;;;;;4.80;2.03;;;17.60;99.90;;;;;;5091207;28;20247;-71
2023/08/03 08:32:16;;;;;;;3.05;1.80;;;17.60;99.90;;;;;;5095188;28;20574;-71
2023/08/03 08:34:43;;;;;;;1.63;1.52;;;17.60;99.90;;;;;;5089852;28;20201;-71
2023/08/03 08:37:10;;;;;;;5.60;2.17;;;17.60;99.90;;;;;;5097092;28;20248;-71
2023/08/03 08:39:37;;;;;;;9.40;2.33;;;;;;;;;;5093649;28;21052;-71
2023/08/03 08:42:13;;;;;;;4.65;1.80;;;17.50;99.90;;;;;;5074629;28;20223;-71
2023/08/03 08:44:40;;;;;;;2.22;1.60;;;17.40;99.90;;;;;;5094452;28;20366;-71
2023/08/03 08:47:07;;;;;;;4.25;1.35;;;17.40;99.90;;;;;;5093726;28;20204;-71
2023/08/03 08:49:35;;;;;;;1.65;0.90;;;17.40;99.90;;;;;;5097636;28;20238;-70
2023/08/03 08:52:02;;;;;;;1.40;1.10;;;17.20;99.90;;;;;;5094097;28;20683;-71
2023/08/03 08:54:32;;;;;;;1.55;1.02;;;17.20;99.90;;;;;;5092942;28;20282;-71
2023/08/03 08:56:59;;;;;;;3.60;1.08;;;16.90;99.90;;;;;;5071516;28;20212;-71
2023/08/03 08:59:26;;;;;;;2.25;1.08;;;17.20;99.90;;;;;;5088160;28;20201;-71
2023/08/03 09:01:54;;;;;;;2.20;1.20;;;16.80;99.90;;;;;;5091781;28;20199;-70
2023/08/03 09:04:31;;;;;;;2.58;1.08;;;17.20;99.90;;;;;;5090523;28;20251;-70
2023/08/03 09:06:59;;;;;;;2.17;1.45;;;16.90;99.90;;;;;;5090772;28;20205;-71
2023/08/03 09:09:28;;;;;;;1.55;0.80;;;17.10;99.90;;;;;;5088380;28;20700;-70
2023/08/03 09:11:56;;;;;;;0.90;0.90;;;17.30;99.90;;;;;;5089711;28;20204;-71
2023/08/03 09:14:23;;;;;;;1.42;1.13;;;17.10;99.90;;;;;;5068322;27;20215;-70
2023/08/03 09:16:49;;;;;;;1.80;0.90;;;17.10;99.90;;;;;;5094136;28;20196;-71
2023/08/03 09:19:34;;;;;;;1.20;1.10;;;17.00;99.90;;;;;;5091835;28;20210;-70
2023/08/03 09:22:03;;;;;;;0.90;0.90;;;17.10;99.90;;;;;;5086885;28;20199;-71
2023/08/03 09:24:30;;;;;;;1.77;1.30;;;17.20;99.90;;;;;;5095758;28;20582;-71
2023/08/03 09:26:57;;;;;;;1.30;1.20;;;17.30;99.90;;;;;;5074934;28;20242;-71
2023/08/03 09:29:28;;;;;;;2.08;1.38;;;17.40;99.90;;;;;;5071472;28;20235;-71
2023/08/03 09:32:01;;;;;;;2.30;1.85;;;17.60;99.90;;;;;;5087868;28;20930;-71
2023/08/03 09:34:36;;;;;;;2.03;1.92;;;17.50;99.90;;;;;;5093837;28;20222;-70
2023/08/03 09:37:04;;;;;;;3.25;2.25;;;17.80;99.90;;;;;;5083636;28;20972;-71
2023/08/03 09:39:34;;;;;;;3.72;2.42;;;17.80;99.90;;;;;;5092034;28;20198;-71
2023/08/03 09:42:04;;;;;;;2.53;2.33;;;17.80;99.90;;;;;;5086296;28;20195;-71
2023/08/03 09:44:31;;;;;;;2.45;2.25;;;17.80;99.90;;;;;;5095459;28;20206;-70
2023/08/03 09:46:59;;;;;;;2.17;2.00;;;18.10;99.90;;;;;;5073562;28;20408;-71
2023/08/03 09:49:26;;;;;;;3.00;1.73;;;18.10;99.90;;;;;;5096523;28;20704;-71
2023/08/03 09:51:55;;;;;;;2.47;2.10;;;18.40;99.90;;;;;;5088383;28;20548;-71
2023/08/03 09:54:33;;;;;;;4.53;2.10;;;18.50;99.90;;;;;;5090725;28;20200;-71
2023/08/03 09:57:03;;;;;;;5.38;2.00;;;18.40;99.90;;;;;;5092675;28;20423;-71
2023/08/03 09:59:34;;;;;;;1.70;1.60;;;18.40;99.90;;;;;;5095645;28;20203;-71
2023/08/03 10:02:03;;;;;;;0.93;0.90;;;18.50;99.90;;;;;;5071334;28;20246;-70
2023/08/03 10:04:32;;;;;;;0.90;0.82;;;18.40;99.90;;;;;;5091642;28;20775;-70
2023/08/03 10:07:06;;;;;;;1.33;0.80;;;18.80;99.90;;;;;;5080760;28;20224;-70
2023/08/03 10:09:39;;;;;;;0.88;0.70;;;18.30;99.90;;;;;;5090481;28;20377;-70
2023/08/03 10:12:12;;;;;;;1.00;0.73;;;18.20;99.90;;;;;;5087175;28;20228;-70
2023/08/03 10:14:42;;;;;;;0.70;0.70;;;18.40;99.90;;;;;;5095300;28;20204;-71
2023/08/03 10:17:10;;;;;;;1.55;0.80;;;18.60;99.90;;;;;;5074658;28;20218;-71
2023/08/03 10:19:38;;;;;;;0.63;0.63;;;18.70;99.90;;;;;;5096022;28;20207;-70
2023/08/03 10:22:07;;;;;;;2.30;0.70;;;20.10;99.90;;;;;;5088304;28;20601;-70
2023/08/03 10:24:35;;;;;;;1.17;0.80;;;18.50;99.90;;;;;;5094464;28;20199;-70
2023/08/03 10:27:17;;;;;;;2.17;0.80;;;18.50;99.90;;;;;;5093370;28;20192;-71
2023/08/03 10:29:54;;;;;;;4.40;0.90;;;18.50;99.90;;;;;;5089018;28;20231;-70
2023/08/03 10:32:23;;;;;;;3.40;0.88;;;18.60;99.90;;;;;;5071395;28;20215;-70
2023/08/03 10:34:52;;;;;;;1.60;0.80;;;18.60;99.90;;;;;;5091728;28;20211;-70
2023/08/03 10:37:19;;;;;;;0.70;0.70;;;18.50;99.90;;;;;;5089307;28;20248;-70
2023/08/03 10:39:50;;;;;;;1.35;0.60;;;18.60;99.90;;;;;;5092639;27;20195;-71
2023/08/03 10:42:28;;;;;;;0.98;0.68;;;18.60;99.90;;;;;;5094622;28;20188;-70
2023/08/03 10:45:22;;;;;;;1.52;0.80;;;18.90;99.90;;;;;;5093043;28;20230;-71
2023/08/03 10:47:49;;;;;;;1.55;0.80;;;19.00;99.90;;;;;;5070187;28;20327;-71
2023/08/03 10:50:16;;;;;;;1.40;0.60;;;18.90;99.90;;;;;;5091525;28;20734;-70
2023/08/03 10:52:43;;;;;;;1.33;0.77;;;19.00;99.90;;;;;;5091410;28;20681;-70
2023/08/03 10:55:26;;;;;;;1.63;0.77;;;19.20;99.90;;;;;;5088845;28;20604;-70
2023/08/03 10:57:54;;;;;;;0.98;0.68;;;19.20;99.90;;;;;;5090128;28;20195;-71
2023/08/03 11:00:21;;;;;;;2.05;0.88;;;19.30;99.90;;;;;;5091764;28;20207;-70
2023/08/03 11:02:48;;;;;;;1.05;0.60;;;19.60;99.90;;;;;;5076324;28;20195;-71
2023/08/03 11:05:15;;;;;;;0.65;0.55;;;19.60;99.90;;;;;;5091268;28;20244;-70
2023/08/03 11:07:44;;;;;;;2.47;0.88;;;19.60;99.90;;;;;;5091255;28;20200;-70
2023/08/03 11:10:12;;;;;;;2.03;0.75;;;19.60;99.90;;;;;;5091272;28;20219;-70
2023/08/03 11:12:42;;;;;;;1.00;0.63;;;19.70;99.90;;;;;;5092568;28;20215;-70
2023/08/03 11:15:09;;;;;;;1.70;0.93;;;19.90;99.90;;;;;;5081774;28;20230;-70
2023/08/03 11:17:37;;;;;;;1.38;0.73;;;19.80;99.90;;;;;;5092846;28;20215;-70
2023/08/03 11:20:07;;;;;;;2.33;0.85;;;19.90;99.90;;;;;;5073668;28;20200;-69
2023/08/03 11:22:34;;;;;;;3.25;1.08;;;20.20;99.90;;;;;;5083078;28;20210;-70
2023/08/03 11:25:03;;;;;;;4.63;0.98;;;20.30;99.90;;;;;;5084569;28;20785;-69
2023/08/03 11:27:31;;;;;;;3.63;0.90;;;20.30;99.90;;;;;;5093902;28;20284;-69
2023/08/03 11:30:02;;;;;;;1.52;0.90;;;20.30;99.90;;;;;;5089841;28;20246;-69
2023/08/03 11:32:31;;;;;;;1.85;1.00;;;20.30;99.90;;;;;;5094165;28;20192;-70
2023/08/03 11:34:59;;;;;;;2.50;0.90;;;20.10;99.90;;;;;;5073735;28;20983;-70
2023/08/03 11:37:29;;;;;;;1.08;0.80;;;20.20;99.90;;;;;;5094306;28;20852;-69
2023/08/03 11:39:56;;;;;;;4.72;1.30;;;20.10;99.90;;;;;;5086029;28;20211;-70
2023/08/03 11:42:23;;;;;;;5.10;1.70;;;20.00;99.90;;;;;;5092320;28;20203;-70
2023/08/03 11:44:50;;;;;;;3.00;2.20;;;19.60;99.90;;;;;;5092477;28;20200;-70
2023/08/03 11:47:18;;;;;;;3.33;1.40;;;19.40;99.90;;;;;;5095055;28;20206;-72
2023/08/03 11:49:48;;;;;;;4.00;1.60;;;19.20;99.90;;;;;;5074930;28;20707;-72
2023/08/03 11:52:18;;;;;;;4.25;1.60;;;19.20;99.90;;;;;;5094934;28;20196;-70
2023/08/03 11:54:45;;;;;;;3.10;1.10;;;19.50;99.90;;;;;;5085762;28;20295;-70
2023/08/03 12:00:13;;;;;;;4.38;1.33;;;19.70;99.90;;;;;;5021488;28;20220;-70
2023/08/03 12:02:43;;;;;;;1.45;1.23;;;19.90;99.90;;;;;;5030874;28;20237;-70
2023/08/03 12:05:10;;;;;;;5.15;1.60;;;20.00;99.90;;;;;;5059209;28;20195;-70
2023/08/03 12:07:37;;;;;;;1.33;1.08;;;20.20;99.90;;;;;;5073401;28;20207;-70
2023/08/03 12:10:13;;;;;;;2.95;1.30;;;20.20;99.90;;;;;;5085255;28;20231;-69
2023/08/03 12:12:40;;;;;;;4.88;1.80;;;20.00;99.90;;;;;;5088448;28;20203;-70
2023/08/03 12:15:07;;;;;;;2.85;1.05;;;19.90;99.90;;;;;;5096842;27;20191;-70
2023/08/03 12:17:34;;;;;;;1.40;1.00;;;19.70;99.90;;;;;;5088251;28;20224;-72
2023/08/03 12:20:02;;;;;;;2.90;1.65;;;19.80;99.90;;;;;;5089319;28;20307;-69
2023/08/03 12:22:29;;;;;;;1.33;0.98;;;19.80;99.90;;;;;;5070807;28;20227;-70
2023/08/03 12:24:56;;;;;;;1.92;1.00;;;19.90;99.90;;;;;;5090572;28;20314;-70
2023/08/03 12:27:23;;;;;;;1.63;1.40;;;20.00;99.90;;;;;;5092586;28;20200;-69
2023/08/03 12:29:49;;;;;;;1.85;0.93;;;20.30;99.90;;;;;;5088172;28;21469;-70
2023/08/03 12:32:16;;;;;;;3.38;1.00;;;20.30;99.90;;;;;;5093190;28;20233;-70
2023/08/03 12:34:43;;;;;;;1.30;1.00;;;20.50;99.90;;;;;;5089450;27;20203;-70
2023/08/03 12:37:11;;;;;;;1.25;0.80;;;20.60;99.90;;;;;;5091002;28;20203;-70
2023/08/03 12:39:38;;;;;;;5.32;1.17;;;20.50;99.90;;;;;;5074198;28;20210;-69
2023/08/03 12:42:05;;;;;;;1.85;0.80;;;20.50;99.90;;;;;;5084627;28;21646;-70
2023/08/03 12:44:32;;;;;;;1.27;0.90;;;20.50;99.90;;;;;;5094356;28;20198;-69
2023/08/03 12:46:58;;;;;;;4.82;1.02;;;20.50;99.90;;;;;;5092705;28;20561;-69
2023/08/03 12:49:25;;;;;;;1.17;0.93;;;20.60;99.90;;;;;;5090614;28;20234;-70
2023/08/03 12:51:52;;;;;;;3.60;1.40;;;20.80;99.90;;;;;;5093265;28;20199;-69
2023/08/03 12:54:20;;;;;;;2.35;1.00;;;20.80;99.90;;;;;;5071581;28;20997;-70